Time;durP1;ratioP1;P1;durP2;ratioP2;P2;SDS_P1;SDS_P2;PMS_P1;PMS_P2;Temp;Humidity;BMP_temperature;BMP_pressure;BME280_temperature;BME280_humidity;BME280_pressure;Samples;Min_cycle;Max_cycle;Signal;HPM_P1;HPM_P2
2023/11/22 00:01:49;;;;;;;6.47;3.28;;;;;;;24.45;38.52;99360.47;4346764;33;33991;-56
2023/11/22 00:04:17;;;;;;;8.73;3.85;;;;;;;24.43;38.58;99357.97;4346538;33;34260;-55
2023/11/22 00:06:45;;;;;;;8.05;3.47;;;;;;;24.42;38.59;99361.78;4346449;33;33858;-56
2023/11/22 00:09:12;;;;;;;7.55;3.33;;;;;;;24.42;38.64;99356.31;4346642;33;34118;-58
2023/11/22 00:11:40;;;;;;;9.20;3.47;;;;;;;24.42;38.63;99364.50;4346613;33;34126;-56
2023/11/22 00:16:54;;;;;;;9.13;3.45;;;;;;;24.42;38.72;99369.97;4346574;33;33835;-56
2023/11/22 00:19:23;;;;;;;8.18;3.95;;;;;;;24.40;38.69;99372.12;4346276;33;34730;-55
2023/11/22 00:21:50;;;;;;;8.85;3.30;;;;;;;24.39;38.84;99378.66;4346336;33;34892;-58
2023/11/22 00:24:18;;;;;;;8.88;3.67;;;;;;;24.37;38.88;99392.50;4346740;33;33776;-57
2023/11/22 00:26:46;;;;;;;10.82;3.50;;;;;;;24.38;38.82;99390.59;4346233;33;33698;-57
2023/11/22 00:29:13;;;;;;;6.78;3.33;;;;;;;24.37;38.84;99388.94;4346367;33;34086;-56
2023/11/22 00:31:41;;;;;;;8.90;3.03;;;;;;;24.36;38.74;99392.72;4346296;33;34838;-53
2023/11/22 00:34:08;;;;;;;5.75;3.00;;;;;;;24.36;38.80;99390.00;4346210;33;34209;-55
2023/11/22 00:36:36;;;;;;;9.20;3.28;;;;;;;24.35;38.82;99391.06;4346295;33;33750;-58
2023/11/22 00:39:04;;;;;;;8.07;3.00;;;;;;;24.35;38.89;99393.81;4345981;33;34791;-57
2023/11/22 00:41:31;;;;;;;6.78;3.22;;;;;;;24.35;38.82;99393.81;4346026;33;34914;-58
2023/11/22 00:43:59;;;;;;;7.20;3.67;;;;;;;24.33;38.84;99380.38;4346113;33;34219;-58
2023/11/22 00:46:27;;;;;;;7.97;3.28;;;;;;;24.33;38.84;99379.56;4345986;33;34513;-57
2023/11/22 00:48:56;;;;;;;4.82;2.70;;;;;;;24.32;38.89;99386.91;4346225;33;34007;-55
2023/11/22 00:51:24;;;;;;;5.35;2.95;;;;;;;24.32;38.88;99383.37;4345999;33;34954;-56
2023/11/22 00:53:52;;;;;;;7.28;2.87;;;;;;;24.31;38.86;99384.44;4346005;33;34385;-55
2023/11/22 00:56:20;;;;;;;6.62;2.70;;;;;;;24.31;38.90;99387.16;4345885;33;33692;-58
2023/11/22 00:58:49;;;;;;;6.50;3.22;;;;;;;24.30;38.94;99391.81;4345980;33;34054;-59
2023/11/22 01:01:19;;;;;;;6.65;2.78;;;;;;;24.28;38.99;99383.03;4346195;33;34044;-56
2023/11/22 01:03:47;;;;;;;5.85;3.20;;;;;;;24.28;39.01;99376.75;4345748;33;34059;-58
2023/11/22 01:06:15;;;;;;;6.95;3.08;;;;;;;24.28;39.08;99377.56;4346736;33;33477;-58
2023/11/22 01:08:43;;;;;;;6.28;2.97;;;;;;;24.27;39.21;99381.38;4334133;33;34782;-57
2023/11/22 01:11:11;;;;;;;5.70;3.03;;;;;;;24.28;39.23;99393.09;4333290;33;33998;-58
2023/11/22 01:13:42;;;;;;;7.28;3.00;;;;;;;24.28;39.21;99393.09;4343847;33;34246;-56
2023/11/22 01:16:10;;;;;;;6.35;3.20;;;;;;;24.27;39.21;99396.91;4347629;33;33799;-56
2023/11/22 01:18:38;;;;;;;7.30;3.03;;;;;;;24.27;39.20;99405.91;4348116;33;33846;-58
2023/11/22 01:21:08;;;;;;;6.37;2.97;;;;;;;24.27;39.22;99405.09;4347830;33;34014;-57
2023/11/22 01:23:36;;;;;;;5.97;2.58;;;;;;;24.26;39.20;99406.97;4347782;33;34773;-58
2023/11/22 01:26:03;;;;;;;7.15;3.30;;;;;;;24.26;39.18;99406.16;4347878;33;33357;-59
2023/11/22 01:28:34;;;;;;;6.57;3.08;;;;;;;24.27;39.23;99407.81;4348104;33;34112;-58
2023/11/22 01:31:02;;;;;;;6.25;3.37;;;;;;;24.26;39.34;99417.88;4347712;33;34818;-56
2023/11/22 01:33:32;;;;;;;7.25;3.30;;;;;;;24.25;39.26;99413.50;4347678;33;34351;-58
2023/11/22 01:35:59;;;;;;;7.57;3.55;;;;;;;24.25;39.27;99410.78;4347836;33;34582;-53
2023/11/22 01:38:27;;;;;;;6.93;2.97;;;;;;;24.25;39.26;99415.38;4347680;33;33912;-58
2023/11/22 01:40:54;;;;;;;6.05;3.10;;;;;;;24.24;39.26;99413.72;4347994;33;34025;-58
2023/11/22 01:43:23;;;;;;;7.85;3.47;;;;;;;24.24;39.29;99417.28;4347716;33;34633;-56
2023/11/22 01:45:52;;;;;;;6.05;2.90;;;;;;;24.23;39.36;99417.53;4334102;33;33421;-59
2023/11/22 01:48:19;;;;;;;6.05;2.72;;;;;;;24.23;39.32;99412.09;4321854;33;34493;-57
2023/11/22 01:50:47;;;;;;;5.75;2.70;;;;;;;24.23;39.38;99409.34;4325350;33;33527;-59
2023/11/22 01:53:16;;;;;;;7.65;3.03;;;;;;;24.23;39.32;99414.81;4332779;33;35122;-59
2023/11/22 01:55:44;;;;;;;6.45;3.30;;;;;;;24.22;39.40;99407.72;4319884;33;34684;-57
2023/11/22 01:58:11;;;;;;;6.15;3.22;;;;;;;24.21;39.37;99415.06;4319586;33;34721;-58
2023/11/22 02:00:49;;;;;;;7.43;3.10;;;;;;;24.20;39.37;99421.56;4319423;33;34654;-57
2023/11/22 02:03:17;;;;;;;9.95;2.50;;;;;;;24.21;39.49;99419.69;4332818;33;34051;-57
2023/11/22 02:05:45;;;;;;;5.35;3.10;;;;;;;24.19;39.49;99418.00;4332686;33;34454;-57
2023/11/22 02:08:13;;;;;;;5.82;2.85;;;;;;;24.20;39.39;99418.84;4332786;33;34717;-58
2023/11/22 02:10:41;;;;;;;6.50;3.30;;;;;;;24.18;39.45;99415.53;4332980;33;34022;-59
2023/11/22 02:13:10;;;;;;;13.88;2.95;;;;;;;24.18;39.41;99420.97;4332739;33;33882;-55
2023/11/22 02:15:37;;;;;;;5.45;2.85;;;;;;;24.17;39.51;99424.78;4332798;33;33611;-57
2023/11/22 02:18:08;;;;;;;6.43;3.12;;;;;;;24.17;39.46;99425.59;4331984;33;34043;-58
2023/11/22 02:20:41;;;;;;;12.25;3.12;;;;;;;24.16;39.48;99432.13;4332614;33;35398;-55
2023/11/22 02:23:09;;;;;;;7.53;3.22;;;;;;;24.16;39.46;99439.50;4332678;33;35051;-56
2023/11/22 02:25:37;;;;;;;7.25;2.92;;;;;;;24.15;39.43;99441.38;4332956;33;33823;-58
2023/11/22 02:28:05;;;;;;;11.07;2.78;;;;;;;24.14;39.42;99436.97;4332979;33;33505;-55
2023/11/22 02:30:32;;;;;;;7.40;3.10;;;;;;;24.14;39.42;99439.72;4332632;33;34156;-57
2023/11/22 02:33:00;;;;;;;9.05;3.58;;;;;;;24.14;39.54;99433.44;4332553;33;34005;-59
2023/11/22 02:35:27;;;;;;;5.87;2.85;;;;;;;24.13;39.51;99439.97;4332732;33;33692;-57
2023/11/22 02:37:55;;;;;;;5.30;2.72;;;;;;;24.12;39.45;99436.41;4332601;33;34098;-52
2023/11/22 02:40:23;;;;;;;5.18;2.45;;;;;;;24.12;39.46;99441.84;4332425;33;34038;-56
2023/11/22 02:42:52;;;;;;;6.07;3.00;;;;;;;24.12;39.45;99441.84;4332612;33;34288;-59
2023/11/22 02:45:25;;;;;;;4.90;2.60;;;;;;;24.11;39.45;99448.38;4332387;33;33789;-55
2023/11/22 02:47:52;;;;;;;5.82;2.92;;;;;;;24.11;39.50;99447.56;4332454;33;34172;-56
2023/11/22 02:50:20;;;;;;;8.25;2.85;;;;;;;24.11;39.44;99451.13;4338791;33;34251;-58
2023/11/22 02:52:48;;;;;;;7.32;2.85;;;;;;;24.10;39.45;99454.88;4347317;33;35137;-58
2023/11/22 02:55:15;;;;;;;5.22;2.60;;;;;;;24.09;39.48;99458.69;4347214;33;34031;-58
2023/11/22 02:57:43;;;;;;;5.90;2.80;;;;;;;24.07;39.50;99455.38;4347447;33;34038;-58
2023/11/22 03:00:13;;;;;;;5.15;2.83;;;;;;;24.07;39.51;99466.28;4347099;33;34939;-58
2023/11/22 03:02:45;;;;;;;5.40;2.72;;;;;;;24.07;39.53;99463.56;4347045;33;35067;-56
2023/11/22 03:05:14;;;;;;;5.47;2.85;;;;;;;24.05;39.52;99471.12;4347156;33;33676;-57
2023/11/22 03:07:41;;;;;;;5.65;3.33;;;;;;;24.05;39.55;99479.31;4347112;33;34797;-57
2023/11/22 03:10:09;;;;;;;5.32;3.10;;;;;;;24.05;39.56;99479.31;4347127;33;35061;-57
2023/11/22 03:12:38;;;;;;;5.45;2.67;;;;;;;24.04;39.54;99485.81;4347153;33;34886;-58
2023/11/22 03:15:07;;;;;;;8.23;3.20;;;;;;;24.03;39.60;99492.34;4347180;33;34590;-56
2023/11/22 03:17:34;;;;;;;4.75;2.53;;;;;;;24.02;39.55;99493.44;4347312;33;33917;-56
2023/11/22 03:20:03;;;;;;;4.90;3.15;;;;;;;24.03;39.56;99496.97;4347080;33;33789;-58
2023/11/22 03:22:30;;;;;;;7.62;3.10;;;;;;;24.02;39.58;99496.16;4347118;33;34321;-58
2023/11/22 03:25:02;;;;;;;6.22;3.30;;;;;;;24.02;39.56;99498.87;4347087;33;33776;-53
2023/11/22 03:27:30;;;;;;;5.43;2.55;;;;;;;24.02;39.60;99489.87;4347035;33;34927;-57
2023/11/22 03:29:58;;;;;;;4.32;2.60;;;;;;;24.03;39.58;99496.97;4346633;33;34819;-57
2023/11/22 03:32:26;;;;;;;7.65;2.83;;;;;;;24.02;39.61;99490.69;4346990;33;35006;-57
2023/11/22 03:34:53;;;;;;;6.55;2.60;;;;;;;24.00;39.66;99495.53;4347048;33;33871;-58
2023/11/22 03:37:21;;;;;;;7.07;2.47;;;;;;;24.01;39.66;99496.38;4346868;33;33331;-59
2023/11/22 03:39:48;;;;;;;5.25;2.72;;;;;;;24.00;39.66;99500.16;4333508;33;34881;-56
2023/11/22 03:42:16;;;;;;;5.80;2.70;;;;;;;23.99;39.65;99502.06;4333540;33;33696;-58
2023/11/22 03:44:44;;;;;;;4.93;2.92;;;;;;;23.99;39.74;99504.78;4346658;32;33431;-57
2023/11/22 03:47:14;;;;;;;5.15;2.65;;;;;;;23.98;39.69;99503.13;4346852;33;33647;-56
2023/11/22 03:49:44;;;;;;;4.40;2.47;;;;;;;23.97;39.74;99512.38;4344389;33;34904;-58
2023/11/22 03:52:11;;;;;;;5.97;2.67;;;;;;;23.98;39.73;99516.75;4331900;33;35055;-58
2023/11/22 03:54:39;;;;;;;5.45;2.70;;;;;;;23.97;39.73;99517.84;4332099;33;34576;-55
2023/11/22 03:57:07;;;;;;;4.45;2.70;;;;;;;23.99;39.67;99523.03;4331995;33;34669;-59
2023/11/22 03:59:34;;;;;;;7.85;3.12;;;;;;;23.97;39.69;99520.56;4331889;33;34889;-58
2023/11/22 04:02:02;;;;;;;5.65;3.03;;;;;;;23.97;39.73;99517.84;4332166;33;34273;-53
2023/11/22 04:04:30;;;;;;;6.55;3.10;;;;;;;23.98;39.81;99524.12;4331983;33;33367;-57
2023/11/22 04:06:58;;;;;;;5.97;2.80;;;;;;;23.96;39.83;99524.34;4331821;33;33818;-58
2023/11/22 04:09:25;;;;;;;5.05;2.70;;;;;;;23.97;39.71;99525.16;4332187;33;35543;-56
2023/11/22 04:11:53;;;;;;;5.78;2.92;;;;;;;23.96;39.73;99528.97;4331906;33;33934;-56
2023/11/22 04:14:21;;;;;;;5.60;2.87;;;;;;;23.96;39.84;99524.34;4331826;33;33558;-56
2023/11/22 04:16:49;;;;;;;5.30;2.40;;;;;;;23.95;39.90;99527.31;4331875;33;34109;-56
2023/11/22 04:19:17;;;;;;;6.30;2.30;;;;;;;23.95;39.89;99527.31;4331738;33;34107;-59
2023/11/22 04:21:46;;;;;;;4.72;2.72;;;;;;;23.96;39.92;99531.69;4331756;33;33999;-56
2023/11/22 04:24:13;;;;;;;6.40;2.50;;;;;;;23.94;39.79;99526.47;4331761;33;33526;-58
2023/11/22 04:26:41;;;;;;;6.40;2.60;;;;;;;23.93;39.79;99541.19;4331589;33;33950;-59
2023/11/22 04:29:08;;;;;;;5.05;2.70;;;;;;;23.92;39.88;99539.50;4331698;33;34011;-56
2023/11/22 04:31:36;;;;;;;4.37;2.45;;;;;;;23.93;39.78;99544.72;4331676;33;34883;-60
2023/11/22 04:34:03;;;;;;;6.30;2.72;;;;;;;23.92;39.81;99534.03;4331479;33;34672;-59
2023/11/22 04:36:31;;;;;;;6.28;2.60;;;;;;;23.91;39.92;99530.50;4331616;33;34813;-57
2023/11/22 04:39:00;;;;;;;4.60;2.62;;;;;;;23.92;39.96;99534.03;4331605;33;33724;-56
2023/11/22 04:41:28;;;;;;;7.25;2.80;;;;;;;23.92;39.98;99544.94;4332313;33;34099;-55
2023/11/22 04:43:55;;;;;;;5.65;2.62;;;;;;;23.89;39.98;99543.53;4333571;33;33779;-58
2023/11/22 04:46:23;;;;;;;4.28;2.62;;;;;;;23.90;39.90;99553.34;4333192;33;34001;-54
2023/11/22 04:48:51;;;;;;;4.90;2.45;;;;;;;23.89;39.95;99542.72;4333262;33;34025;-53
2023/11/22 04:51:19;;;;;;;6.32;2.80;;;;;;;23.89;39.94;99548.16;4345732;33;34227;-59
2023/11/22 04:53:46;;;;;;;6.10;2.80;;;;;;;23.88;39.90;99551.94;4348341;33;33675;-58
2023/11/22 04:56:14;;;;;;;5.00;2.67;;;;;;;23.87;39.97;99548.38;4348214;33;34671;-55
2023/11/22 04:58:41;;;;;;;9.18;2.75;;;;;;;23.87;39.95;99559.28;4348278;33;34008;-57
2023/11/22 05:01:12;;;;;;;5.45;2.72;;;;;;;23.88;39.92;99554.69;4348015;33;32985;-57
2023/11/22 05:03:41;;;;;;;6.07;2.60;;;;;;;23.88;39.88;99560.13;4347856;33;34602;-57
2023/11/22 05:06:09;;;;;;;5.53;2.37;;;;;;;23.87;39.96;99559.28;4348034;33;33721;-54
2023/11/22 05:08:36;;;;;;;8.23;2.60;;;;;;;23.88;39.91;99558.22;4347979;33;33860;-56
2023/11/22 05:11:04;;;;;;;7.62;2.60;;;;;;;23.87;39.95;99561.16;4347765;33;34244;-57
2023/11/22 05:13:32;;;;;;;6.28;2.40;;;;;;;23.86;39.96;99570.41;4347921;33;33775;-59
2023/11/22 05:16:00;;;;;;;6.95;2.53;;;;;;;23.86;39.95;99581.31;4348001;33;34757;-57
2023/11/22 05:18:29;;;;;;;6.47;2.58;;;;;;;23.86;39.90;99582.13;4347733;33;34905;-57
2023/11/22 05:21:14;;;;;;;5.82;2.78;;;;;;;23.86;39.91;99584.88;4347776;33;33914;-56
2023/11/22 05:23:42;;;;;;;4.80;2.37;;;;;;;23.85;39.94;99583.22;4347764;33;34425;-54
2023/11/22 05:26:12;;;;;;;4.78;2.37;;;;;;;23.84;39.93;99583.47;4347802;33;34137;-57
2023/11/22 05:28:40;;;;;;;5.68;2.83;;;;;;;23.86;39.94;99584.03;4347806;33;34064;-58
2023/11/22 05:31:08;;;;;;;4.60;2.97;;;;;;;23.84;39.95;99589.72;4347636;33;34298;-56
2023/11/22 05:33:35;;;;;;;6.30;2.47;;;;;;;23.83;39.93;99579.91;4347775;33;34256;-58
2023/11/22 05:36:03;;;;;;;6.87;2.35;;;;;;;23.82;39.96;99586.41;4348088;33;34027;-55
2023/11/22 05:38:33;;;;;;;4.95;2.65;;;;;;;23.83;39.90;99596.25;4347570;33;34012;-54
2023/11/22 05:41:01;;;;;;;6.18;2.45;;;;;;;23.83;39.97;99606.31;4347728;33;33923;-55
2023/11/22 05:43:28;;;;;;;6.12;2.75;;;;;;;23.83;39.94;99611.78;4347705;33;34416;-57
2023/11/22 05:45:56;;;;;;;6.75;2.33;;;;;;;23.82;39.96;99615.53;4347486;33;33516;-56
2023/11/22 05:48:24;;;;;;;6.35;2.53;;;;;;;23.82;39.95;99616.38;4347805;33;33638;-56
2023/11/22 05:50:51;;;;;;;5.82;2.72;;;;;;;23.81;40.07;99619.34;4338189;33;34187;-56
2023/11/22 05:53:19;;;;;;;8.10;2.53;;;;;;;23.82;40.04;99631.88;4332030;33;33452;-56
2023/11/22 05:55:48;;;;;;;7.10;2.50;;;;;;;23.81;39.96;99638.41;4333093;33;33829;-54
2023/11/22 05:58:16;;;;;;;5.93;2.72;;;;;;;23.80;39.98;99632.12;4332737;33;34840;-59
2023/11/22 06:00:44;;;;;;;7.75;3.30;;;;;;;23.80;40.03;99645.75;4332831;33;34715;-58
2023/11/22 06:03:12;;;;;;;7.05;2.80;;;;;;;23.80;40.02;99637.56;4333032;33;33512;-57
2023/11/22 06:05:40;;;;;;;5.37;2.83;;;;;;;23.81;40.00;99638.41;4332715;33;34737;-57
2023/11/22 06:08:09;;;;;;;6.65;2.10;;;;;;;23.79;40.02;99646.81;4332800;33;33696;-56
2023/11/22 06:10:41;;;;;;;5.82;2.42;;;;;;;23.80;40.06;99650.37;4332750;33;34285;-57
2023/11/22 06:13:10;;;;;;;5.30;2.75;;;;;;;23.80;40.09;99659.38;4332749;33;33425;-58
2023/11/22 06:15:37;;;;;;;6.57;2.85;;;;;;;23.80;40.11;99664.00;4332811;33;34126;-55
2023/11/22 06:18:05;;;;;;;5.03;2.12;;;;;;;23.78;40.06;99661.50;4332606;33;34092;-58
2023/11/22 06:20:33;;;;;;;5.50;2.37;;;;;;;23.78;40.11;99664.25;4332621;33;34151;-57
2023/11/22 06:23:00;;;;;;;7.28;2.40;;;;;;;23.78;40.15;99671.56;4332532;33;33662;-54
2023/11/22 06:25:28;;;;;;;6.78;2.10;;;;;;;23.78;40.17;99668.81;4332714;33;33956;-55
2023/11/22 06:27:55;;;;;;;7.50;2.22;;;;;;;23.78;40.18;99675.13;4332668;33;34132;-56
2023/11/22 06:30:26;;;;;;;10.52;3.00;;;;;;;23.77;40.19;99681.63;4332580;33;35030;-57
2023/11/22 06:32:53;;;;;;;7.07;2.60;;;;;;;23.78;40.23;99686.03;4332585;33;33528;-57
2023/11/22 06:35:21;;;;;;;6.70;2.45;;;;;;;23.78;40.22;99687.91;4332663;33;33553;-55
2023/11/22 06:37:49;;;;;;;15.23;2.72;;;;;;;23.77;40.25;99694.41;4332598;33;34049;-59
2023/11/22 06:40:16;;;;;;;4.87;2.40;;;;;;;23.76;40.24;99698.22;4332575;33;34653;-58
2023/11/22 06:42:44;;;;;;;5.60;2.50;;;;;;;23.77;40.27;99708.03;4332263;33;34808;-55
2023/11/22 06:45:15;;;;;;;7.72;2.20;;;;;;;23.75;40.32;99711.00;4332178;33;33846;-57
2023/11/22 06:47:42;;;;;;;6.30;2.30;;;;;;;23.75;40.37;99719.19;4332507;33;34107;-59
2023/11/22 06:50:10;;;;;;;4.68;2.22;;;;;;;23.76;40.33;99723.56;4337711;33;34716;-60
2023/11/22 06:52:38;;;;;;;6.12;2.60;;;;;;;23.75;40.36;99730.06;4347331;33;34602;-57
2023/11/22 06:55:09;;;;;;;5.22;2.50;;;;;;;23.75;40.39;99724.63;4347163;33;34828;-58
2023/11/22 06:57:36;;;;;;;9.63;2.60;;;;;;;23.77;40.29;99724.38;4347456;33;33911;-53
2023/11/22 07:00:05;;;;;;;6.00;2.47;;;;;;;23.77;40.46;99732.56;4347476;33;34324;-56
2023/11/22 07:02:32;;;;;;;11.15;3.08;;;;;;;23.77;40.06;99741.56;4346969;33;34725;-52
2023/11/22 07:05:01;;;;;;;5.25;2.40;;;;;;;23.77;39.72;99754.34;4346747;33;33827;-57
2023/11/22 07:07:29;;;;;;;8.10;3.20;;;;;;;23.75;39.39;99748.31;4347371;33;34993;-53
2023/11/22 07:09:58;;;;;;;6.65;3.00;;;;;;;23.74;39.10;99744.75;4347076;33;33966;-55
2023/11/22 07:12:27;;;;;;;5.75;3.00;;;;;;;23.73;38.99;99751.25;4347249;33;34214;-53
2023/11/22 07:14:55;;;;;;;5.55;2.97;;;;;;;23.71;38.79;99753.38;4346998;33;33808;-54
2023/11/22 07:17:23;;;;;;;8.70;3.00;;;;;;;23.71;38.73;99764.28;4346801;33;33973;-54
2023/11/22 07:19:51;;;;;;;4.87;2.78;;;;;;;23.70;38.70;99764.53;4347141;33;33992;-55
2023/11/22 07:22:19;;;;;;;5.55;2.85;;;;;;;23.68;38.60;99770.19;4347190;33;33711;-56
2023/11/22 07:24:54;;;;;;;5.72;2.42;;;;;;;23.67;38.63;99768.53;4333581;33;34461;-54
2023/11/22 07:27:22;;;;;;;5.40;2.65;;;;;;;23.65;38.63;99766.03;4346860;33;33554;-56
2023/11/22 07:29:52;;;;;;;8.48;2.92;;;;;;;23.64;38.58;99758.06;4346919;33;35134;-55
2023/11/22 07:32:22;;;;;;;4.53;2.45;;;;;;;23.62;38.58;99774.63;4345462;33;34503;-57
2023/11/22 07:34:55;;;;;;;6.70;2.90;;;;;;;23.63;38.56;99789.06;4345193;33;34017;-56
2023/11/22 07:37:23;;;;;;;5.55;2.90;;;;;;;23.60;38.56;99784.94;4344932;33;33471;-54
2023/11/22 07:39:53;;;;;;;6.62;2.95;;;;;;;23.59;38.59;99779.69;4344863;33;34200;-54
2023/11/22 07:42:22;;;;;;;6.03;2.72;;;;;;;23.59;38.66;99776.97;4344937;33;33828;-51
2023/11/22 07:44:55;;;;;;;7.50;2.72;;;;;;;23.58;38.69;99776.12;4345045;33;33883;-55
2023/11/22 07:47:24;;;;;;;4.82;2.65;;;;;;;23.56;38.64;99786.44;4345782;33;34642;-57
2023/11/22 07:49:52;;;;;;;9.00;3.47;;;;;;;23.55;38.70;99790.22;4343885;33;84990;-54
2023/11/22 07:52:19;;;;;;;7.75;2.70;;;;;;;23.54;38.72;99793.16;4346858;33;33496;-56
2023/11/22 07:54:47;;;;;;;7.43;2.97;;;;;;;23.54;38.80;99796.72;4346842;33;33780;-55
2023/11/22 07:57:14;;;;;;;4.87;2.67;;;;;;;23.52;38.86;99804.28;4346612;33;34112;-57
2023/11/22 07:59:42;;;;;;;6.45;3.28;;;;;;;23.52;38.93;99801.56;4346839;33;33358;-56
2023/11/22 08:02:11;;;;;;;9.90;2.62;;;;;;;23.51;38.97;99799.91;4346710;33;34246;-54
2023/11/22 08:04:40;;;;;;;5.32;2.85;;;;;;;23.51;39.00;99799.09;4346608;33;34143;-56
2023/11/22 08:07:08;;;;;;;7.10;2.78;;;;;;;23.52;38.98;99803.47;4346660;33;34181;-58
2023/11/22 08:09:35;;;;;;;5.32;2.72;;;;;;;23.51;39.02;99815.41;4346698;33;34285;-57
2023/11/22 08:12:03;;;;;;;4.97;2.72;;;;;;;23.51;39.04;99805.34;4346549;33;33647;-54
2023/11/22 08:14:33;;;;;;;7.80;3.03;;;;;;;23.51;39.04;99809.97;4346664;33;33931;-54
2023/11/22 08:17:01;;;;;;;5.93;3.10;;;;;;;23.53;39.01;99818.75;4346082;33;34017;-55
2023/11/22 08:19:29;;;;;;;5.87;2.83;;;;;;;23.52;39.03;99820.63;4346227;33;35001;-56
2023/11/22 08:21:57;;;;;;;5.95;2.97;;;;;;;23.52;39.04;99819.81;4346513;33;34443;-57
2023/11/22 08:24:24;;;;;;;6.97;2.97;;;;;;;23.51;39.09;99827.13;4346441;33;34826;-53
2023/11/22 08:26:52;;;;;;;4.18;2.65;;;;;;;23.51;39.08;99827.13;4346332;33;34520;-56
2023/11/22 08:29:19;;;;;;;5.40;2.62;;;;;;;23.52;39.09;99827.97;4346493;33;34175;-53
2023/11/22 08:31:50;;;;;;;3.35;2.20;;;;;;;23.53;39.07;99832.34;4346357;33;34257;-55
2023/11/22 08:34:18;;;;;;;4.87;2.85;;;;;;;23.52;39.09;99830.69;4346143;33;34795;-53
2023/11/22 08:36:46;;;;;;;5.75;2.50;;;;;;;23.51;39.10;99838.03;4346299;33;34369;-53
2023/11/22 08:39:13;;;;;;;8.38;2.75;;;;;;;23.52;39.09;99836.97;4346623;33;34238;-55
2023/11/22 08:41:41;;;;;;;5.25;2.80;;;;;;;23.53;39.09;99841.34;4346168;33;34301;-54
2023/11/22 08:44:09;;;;;;;6.32;2.37;;;;;;;23.53;39.10;99838.63;4346061;33;34752;-53
2023/11/22 08:46:36;;;;;;;6.25;2.90;;;;;;;23.53;39.10;99844.06;4346321;33;33756;-54
2023/11/22 08:49:04;;;;;;;4.97;2.75;;;;;;;23.53;39.10;99838.63;4346091;33;34967;-54
2023/11/22 08:51:33;;;;;;;5.65;2.87;;;;;;;23.54;39.07;99845.72;4346117;33;34610;-53
2023/11/22 08:54:01;;;;;;;4.90;2.47;;;;;;;23.54;39.06;99848.47;4346122;33;33981;-57
2023/11/22 08:56:29;;;;;;;6.28;2.47;;;;;;;23.56;39.06;99859.97;4346024;33;34205;-57
2023/11/22 08:58:57;;;;;;;7.50;2.67;;;;;;;23.55;39.08;99863.75;4346231;33;34204;-55
2023/11/22 09:01:25;;;;;;;6.47;2.67;;;;;;;23.55;39.09;99860.19;4343853;33;33721;-55
2023/11/22 09:03:53;;;;;;;6.70;2.80;;;;;;;23.55;39.11;99850.16;4346035;33;34699;-55
2023/11/22 09:06:22;;;;;;;6.60;3.08;;;;;;;23.56;39.10;99859.16;4342378;33;35030;-59
2023/11/22 09:08:49;;;;;;;10.43;3.55;;;;;;;23.53;39.13;99852.25;4336524;33;34303;-55
2023/11/22 09:11:19;;;;;;;10.85;3.12;;;;;;;23.54;39.15;99866.69;4345802;33;33428;-54
2023/11/22 09:13:47;;;;;;;;;;;;;;;23.54;39.18;99870.25;4353903;32;34630;-58
2023/11/22 09:16:16;;;;;;;7.75;3.05;;;;;;;23.63;39.03;99857.16;4342012;32;33963;-55
2023/11/22 09:18:44;;;;;;;9.80;3.53;;;;;;;23.55;39.19;99869.22;4336943;33;35742;-52
2023/11/22 09:21:12;;;;;;;7.18;2.80;;;;;;;23.53;39.26;99867.75;4332920;33;34424;-55
2023/11/22 09:23:42;;;;;;;5.87;2.58;;;;;;;23.50;39.33;99868.19;4330980;33;34831;-60
2023/11/22 09:26:10;;;;;;;5.25;2.75;;;;;;;23.51;39.35;99873.44;4338628;33;34052;-55
2023/11/22 09:28:40;;;;;;;5.68;3.10;;;;;;;23.50;39.38;99890.00;4347913;33;33665;-56
2023/11/22 09:31:07;;;;;;;4.95;2.28;;;;;;;23.49;39.39;99896.50;4353754;32;34133;-58
2023/11/22 09:33:36;;;;;;;7.22;2.72;;;;;;;23.49;39.36;99888.31;4362710;32;34151;-54
2023/11/22 09:36:07;;;;;;;6.93;2.70;;;;;;;23.49;39.37;99893.78;4362501;32;33630;-61
2023/11/22 09:38:38;;;;;;;6.20;2.45;;;;;;;23.46;39.40;99905.97;4362561;32;34327;-58
2023/11/22 09:41:08;;;;;;;7.25;3.05;;;;;;;23.45;39.41;99904.28;4357453;32;33690;-55
2023/11/22 09:43:36;;;;;;;4.65;2.60;;;;;;;23.46;39.42;99899.69;4323045;33;34827;-53
2023/11/22 09:46:03;;;;;;;5.97;2.40;;;;;;;23.46;39.39;99897.78;4332999;33;34167;-52
2023/11/22 09:48:31;;;;;;;6.40;2.87;;;;;;;23.47;39.39;99906.78;4332866;33;33687;-58
2023/11/22 09:51:07;;;;;;;8.18;3.30;;;;;;;23.46;39.38;99911.41;4326613;33;33800;-61
2023/11/22 09:53:46;;;;;;;4.03;2.45;;;;;;;23.47;39.39;99917.69;4331309;33;34051;-58
2023/11/22 09:56:14;;;;;;;4.53;2.22;;;;;;;23.47;39.36;99929.41;4343638;33;34982;-60
2023/11/22 09:58:44;;;;;;;4.80;2.55;;;;;;;23.48;39.32;99925.63;4310834;33;34871;-55
2023/11/22 10:01:13;;;;;;;5.20;2.72;;;;;;;23.48;39.31;99925.63;4332894;33;34324;-58
2023/11/22 10:03:41;;;;;;;7.62;2.95;;;;;;;23.49;39.26;99929.19;4307856;33;34068;-57
2023/11/22 10:06:09;;;;;;;9.85;2.80;;;;;;;23.49;39.25;99932.72;4319886;33;34029;-57
2023/11/22 10:08:38;;;;;;;6.43;3.10;;;;;;;23.49;39.22;99927.28;4342676;33;34921;-56
2023/11/22 10:11:06;;;;;;;4.95;2.50;;;;;;;23.51;39.18;99929.81;4347367;33;33855;-60
2023/11/22 10:13:34;;;;;;;5.60;2.78;;;;;;;23.51;39.20;99930.63;4347853;33;33927;-57
2023/11/22 10:16:15;;;;;;;6.60;2.60;;;;;;;23.51;39.18;99938.81;4347776;33;34151;-55
2023/11/22 10:18:44;;;;;;;4.78;2.55;;;;;;;23.53;39.20;99939.41;4332685;33;35553;-60
2023/11/22 10:21:30;;;;;;;9.73;3.50;;;;;;;23.52;39.21;99940.47;4333026;33;33728;-65
2023/11/22 10:24:01;;;;;;;10.82;6.47;;;;;;;23.55;38.10;99937.31;4332661;33;34025;-65
2023/11/22 10:26:29;;;;;;;9.95;6.18;;;;;;;23.46;32.78;99935.91;4333400;33;34470;-56
2023/11/22 10:28:57;;;;;;;8.18;5.55;;;;;;;23.28;33.85;99939.41;4334977;33;34816;-62
2023/11/22 10:31:25;;;;;;;6.90;5.05;;;;;;;23.23;34.90;99949.31;4347436;33;33552;-60
2023/11/22 10:33:53;;;;;;;10.35;5.25;;;;;;;23.25;35.86;99956.19;4336537;33;34034;-61
2023/11/22 10:36:21;;;;;;;8.85;4.22;;;;;;;23.25;35.87;99948.03;4332503;33;34150;-62
2023/11/22 10:38:50;;;;;;;10.23;4.82;;;;;;;23.31;35.99;99959.91;4332008;33;34093;-62
2023/11/22 10:41:20;;;;;;;5.90;3.80;;;;;;;23.40;36.11;99967.56;4332585;33;34494;-60
2023/11/22 10:43:48;;;;;;;6.07;3.60;;;;;;;23.57;36.19;99973.31;4340431;33;34606;-62
2023/11/22 10:46:16;;;;;;;6.15;3.37;;;;;;;23.72;36.22;99980.34;4319988;33;34795;-62
2023/11/22 10:48:44;;;;;;;6.18;3.92;;;;;;;23.87;36.28;99986.25;4332544;33;34305;-61
2023/11/22 10:51:13;;;;;;;6.82;3.50;;;;;;;24.02;36.29;99991.38;4332606;33;33524;-62
2023/11/22 10:53:46;;;;;;;5.32;3.50;;;;;;;24.15;36.27;99986.59;4332771;33;34049;-60
2023/11/22 10:56:20;;;;;;;7.22;3.22;;;;;;;24.29;36.24;99980.97;4319012;33;33842;-61
2023/11/22 10:58:57;;;;;;;6.20;3.58;;;;;;;24.45;36.20;99985.84;4347320;33;34563;-62
2023/11/22 11:01:31;;;;;;;5.97;2.92;;;;;;;24.54;36.19;99984.50;4334339;33;33648;-60
2023/11/22 11:04:06;;;;;;;5.72;3.00;;;;;;;24.67;36.11;99986.22;4334376;33;34125;-62
2023/11/22 11:06:35;;;;;;;5.28;3.37;;;;;;;24.76;36.06;100003.94;4332477;33;33698;-62
2023/11/22 11:09:10;;;;;;;5.43;3.45;;;;;;;24.87;36.01;100010.50;4332238;33;34064;-61
2023/11/22 11:11:41;;;;;;;7.32;3.55;;;;;;;24.97;35.96;100016.22;4332139;33;33361;-59
2023/11/22 11:14:11;;;;;;;6.50;2.75;;;;;;;25.08;35.91;100014.63;4333188;33;33998;-62
2023/11/22 11:16:41;;;;;;;5.40;3.10;;;;;;;25.17;35.89;100021.44;4332420;33;34071;-62
2023/11/22 11:19:09;;;;;;;5.28;2.83;;;;;;;25.25;35.84;100017.53;4332306;33;34878;-62
2023/11/22 11:21:38;;;;;;;5.20;2.87;;;;;;;25.30;35.80;100013.03;4335774;33;33226;-63
2023/11/22 11:24:06;;;;;;;5.60;3.08;;;;;;;25.36;35.77;100019.47;4311461;33;34137;-61
2023/11/22 11:26:35;;;;;;;5.62;3.05;;;;;;;25.38;35.76;100018.16;4334821;33;32712;-63
2023/11/22 11:29:07;;;;;;;7.87;2.97;;;;;;;25.44;35.73;100030.06;4332720;33;33983;-63
2023/11/22 11:31:39;;;;;;;6.35;2.53;;;;;;;25.49;35.76;100032.91;4332373;33;33940;-63
2023/11/22 11:34:07;;;;;;;5.05;3.05;;;;;;;25.56;35.75;100027.37;4332137;33;33801;-63
2023/11/22 11:36:37;;;;;;;5.50;3.00;;;;;;;25.63;35.72;100031.62;4332280;33;35045;-63
2023/11/22 11:39:09;;;;;;;6.32;3.12;;;;;;;25.74;35.68;100031.88;4340540;33;34306;-63
2023/11/22 11:41:39;;;;;;;5.68;3.33;;;;;;;25.84;35.59;100032.19;4346802;33;33153;-63